createdAt,value
2019-05-17T00:01:07.322Z,69.84
2019-05-17T00:03:42.275Z,69.76
2019-05-17T00:06:17.041Z,69.62
2019-05-17T00:08:51.673Z,69.27
2019-05-17T00:11:27.383Z,69.27
2019-05-17T00:14:02.258Z,69.48
2019-05-17T00:16:37.490Z,69.53
2019-05-17T00:19:12.274Z,69.43
2019-05-17T00:21:47.505Z,69.41
2019-05-17T00:24:21.950Z,69.33
2019-05-17T00:26:58.487Z,69.34
2019-05-17T00:29:32.325Z,69.05
2019-05-17T00:32:06.874Z,69.05
2019-05-17T00:34:39.996Z,69.21
2019-05-17T00:37:12.888Z,69.30
2019-05-17T00:39:47.109Z,69.25
2019-05-17T00:42:21.674Z,69.00
2019-05-17T00:44:56.522Z,69.00
2019-05-17T00:47:30.947Z,68.85
2019-05-17T00:50:03.800Z,68.83
2019-05-17T00:52:38.273Z,68.78
2019-05-17T00:55:12.940Z,68.57
2019-05-17T00:57:47.623Z,68.58
2019-05-17T01:00:22.275Z,68.59
2019-05-17T01:02:57.342Z,68.63
2019-05-17T01:05:31.945Z,68.61
2019-05-17T01:08:07.291Z,68.61
2019-05-17T01:10:42.106Z,68.56
2019-05-17T01:13:17.303Z,68.55
2019-05-17T01:15:51.949Z,68.54
2019-05-17T01:18:26.958Z,68.54
2019-05-17T01:21:01.776Z,68.31
2019-05-17T01:23:36.357Z,68.31
2019-05-17T01:26:11.279Z,68.48
2019-05-17T01:28:46.778Z,68.51
2019-05-17T01:31:21.304Z,68.52
2019-05-17T01:33:56.504Z,68.54
2019-05-17T01:36:31.272Z,68.54
2019-05-17T01:39:17.024Z,68.47
2019-05-17T01:41:42.316Z,68.63
2019-05-17T01:44:16.940Z,68.63
2019-05-17T01:46:51.322Z,68.52
2019-05-17T01:49:27.115Z,68.52
2019-05-17T01:52:01.836Z,68.33
2019-05-17T01:54:36.266Z,68.30
2019-05-17T01:57:10.664Z,67.98
2019-05-17T01:59:46.667Z,67.98
2019-05-17T02:02:24.248Z,68.04
2019-05-17T02:04:58.367Z,67.85
2019-05-17T02:07:32.889Z,67.85
2019-05-17T02:10:07.866Z,67.75
2019-05-17T02:12:42.123Z,67.60
2019-05-17T02:15:20.267Z,67.56
2019-05-17T02:17:54.697Z,67.48
2019-05-17T02:20:29.118Z,67.47
2019-05-17T02:23:03.694Z,67.37
2019-05-17T02:25:38.118Z,67.38
2019-05-17T02:28:12.770Z,67.60
2019-05-17T02:30:47.773Z,67.54
2019-05-17T02:33:23.643Z,67.52
2019-05-17T02:35:56.738Z,67.41
2019-05-17T02:38:33.325Z,67.60
2019-05-17T02:41:08.276Z,67.60
2019-05-17T02:43:43.419Z,67.60
2019-05-17T02:46:17.957Z,67.83
2019-05-17T02:48:53.913Z,68.00
2019-05-17T02:51:28.326Z,67.86
2019-05-17T02:54:04.304Z,67.86
2019-05-17T02:56:38.919Z,67.58
2019-05-17T02:59:13.759Z,67.71
2019-05-17T03:01:46.864Z,67.71
2019-05-17T03:04:23.663Z,67.66
2019-05-17T03:06:55.703Z,67.86
2019-05-17T03:09:33.295Z,67.75
2019-05-17T03:12:04.821Z,67.59
2019-05-17T03:14:39.100Z,67.53
2019-05-17T03:17:14.233Z,67.33
2019-05-17T03:19:48.711Z,67.33
2019-05-17T03:22:23.285Z,67.43
2019-05-17T03:24:57.723Z,67.49
2019-05-17T03:27:33.777Z,67.44
2019-05-17T03:30:08.881Z,67.58
2019-05-17T03:32:47.620Z,67.60
2019-05-17T03:35:25.875Z,67.46
2019-05-17T03:37:57.273Z,67.32
2019-05-17T03:41:00.968Z,67.18
2019-05-17T03:43:08.319Z,67.05
2019-05-17T03:45:42.777Z,67.05
2019-05-17T03:48:15.693Z,67.26
2019-05-17T03:50:52.879Z,67.26
2019-05-17T03:53:26.282Z,66.94
2019-05-17T03:56:03.020Z,67.05
2019-05-17T03:58:36.936Z,67.15
2019-05-17T04:01:14.123Z,67.15
2019-05-17T04:03:47.253Z,67.16
2019-05-17T04:06:23.890Z,66.99
2019-05-17T04:08:57.923Z,66.84
2019-05-17T04:11:36.286Z,67.12
2019-05-17T04:14:08.305Z,67.29
2019-05-17T04:16:43.036Z,67.40
2019-05-17T04:19:17.693Z,66.79
2019-05-17T04:21:53.730Z,66.79
2019-05-17T04:24:27.018Z,66.64
2019-05-17T04:27:03.688Z,66.48
2019-05-17T04:29:37.240Z,66.53
2019-05-17T04:32:12.925Z,66.53
2019-05-17T04:34:47.675Z,66.39
2019-05-17T04:37:22.771Z,66.36
2019-05-17T04:39:58.341Z,66.36
2019-05-17T04:42:33.221Z,66.33
2019-05-17T04:45:08.313Z,66.31
2019-05-17T04:47:44.130Z,66.13
2019-05-17T04:50:22.775Z,66.20
2019-05-17T04:52:56.267Z,66.14
2019-05-17T04:55:33.786Z,66.06
2019-05-17T04:58:07.936Z,65.98
2019-05-17T05:00:43.029Z,65.81
2019-05-17T05:03:17.777Z,65.69
2019-05-17T05:05:53.538Z,65.76
2019-05-17T05:08:26.725Z,65.58
2019-05-17T05:11:04.137Z,65.40
2019-05-17T05:16:17.728Z,65.22
2019-05-17T05:18:52.254Z,64.86
2019-05-17T05:21:26.711Z,64.67
2019-05-17T05:23:59.676Z,64.45
2019-05-17T05:26:33.938Z,64.10
2019-05-17T05:29:08.274Z,64.24
2019-05-17T05:31:42.883Z,64.12
2019-05-17T05:34:17.391Z,64.06
2019-05-17T05:36:52.581Z,63.85
2019-05-17T05:39:27.274Z,63.61
2019-05-17T05:42:07.917Z,63.35
2019-05-17T05:44:37.945Z,62.91
2019-05-17T05:47:12.288Z,62.57
2019-05-17T05:49:46.931Z,62.40
2019-05-17T05:52:21.829Z,62.72
2019-05-17T05:54:56.342Z,62.71
2019-05-17T05:57:32.196Z,62.46
2019-05-17T06:00:08.285Z,62.23
2019-05-17T06:02:42.909Z,62.28
2019-05-17T06:05:17.950Z,61.93
2019-05-17T06:07:52.205Z,61.88
2019-05-17T06:10:27.298Z,61.54
2019-05-17T06:13:03.262Z,61.29
2019-05-17T06:15:38.266Z,61.07
2019-05-17T06:18:12.732Z,61.02
2019-05-17T06:20:46.077Z,61.46
2019-05-17T06:23:23.203Z,61.69
2019-05-17T06:25:57.114Z,61.33
2019-05-17T06:28:32.023Z,60.94
2019-05-17T06:31:06.955Z,60.65
2019-05-17T06:33:42.282Z,60.42
2019-05-17T06:36:17.288Z,60.42
2019-05-17T06:38:52.777Z,60.35
2019-05-17T06:41:27.280Z,60.69
2019-05-17T06:44:02.908Z,60.40
2019-05-17T06:46:37.775Z,59.38
2019-05-17T06:49:12.560Z,59.38
2019-05-17T06:51:47.263Z,59.11
2019-05-17T06:54:21.818Z,58.79
2019-05-17T06:56:56.278Z,57.97
2019-05-17T06:59:30.933Z,57.47
2019-05-17T07:02:05.688Z,55.73
2019-05-17T07:04:39.496Z,55.73
2019-05-17T07:07:27.280Z,54.05
2019-05-17T07:10:02.342Z,51.64
2019-05-17T07:12:51.094Z,51.64
2019-05-17T07:15:14.135Z,51.55
2019-05-17T07:17:50.487Z,51.25
2019-05-17T07:20:25.432Z,51.79
2019-05-17T07:23:01.278Z,50.95
2019-05-17T07:25:35.921Z,51.99
2019-05-17T07:28:10.016Z,52.17
2019-05-17T07:30:45.275Z,52.49
2019-05-17T07:33:21.106Z,52.18
2019-05-17T07:35:55.749Z,50.32
2019-05-17T07:38:30.467Z,50.32
2019-05-17T07:41:05.278Z,48.82
2019-05-17T07:43:40.524Z,49.38
2019-05-17T07:46:14.276Z,48.87
2019-05-17T07:48:49.734Z,48.77
2019-05-17T07:51:24.416Z,48.77
2019-05-17T07:53:59.706Z,47.01
2019-05-17T07:56:34.363Z,47.34
2019-05-17T07:59:09.582Z,47.34
2019-05-17T08:01:44.334Z,44.24
2019-05-17T08:04:20.443Z,44.38
2019-05-17T08:06:55.398Z,44.38
2019-05-17T08:09:30.283Z,41.31
2019-05-17T08:12:05.089Z,41.06
2019-05-17T08:14:40.173Z,40.39
2019-05-17T08:17:15.286Z,40.39
2019-05-17T08:19:50.008Z,38.77
2019-05-17T08:22:24.681Z,36.74
2019-05-17T08:25:00.042Z,36.74
2019-05-17T08:27:34.893Z,37.05
2019-05-17T08:30:10.585Z,35.63
2019-05-17T08:32:45.311Z,35.30
2019-05-17T08:35:20.098Z,34.86
2019-05-17T08:37:54.957Z,32.68
2019-05-17T08:40:30.725Z,32.68
2019-05-17T08:43:05.299Z,31.39
2019-05-17T08:45:40.909Z,33.25
2019-05-17T08:48:15.755Z,34.40
2019-05-17T08:50:50.341Z,34.40
2019-05-17T08:53:24.945Z,34.04
2019-05-17T08:56:01.016Z,34.93
2019-05-17T08:58:35.947Z,34.89
2019-05-17T09:01:11.706Z,35.64
2019-05-17T09:03:45.018Z,35.64
2019-05-17T09:06:19.896Z,36.87
2019-05-17T09:08:54.689Z,37.02
2019-05-17T09:11:30.202Z,37.45
2019-05-17T09:14:03.106Z,38.40
2019-05-17T09:16:40.069Z,38.70
2019-05-17T09:19:14.290Z,38.70
2019-05-17T09:21:50.341Z,39.04
2019-05-17T09:24:25.354Z,39.41
2019-05-17T09:27:01.311Z,38.21
2019-05-17T09:29:36.211Z,38.21
2019-05-17T09:32:11.213Z,35.63
2019-05-17T09:34:46.131Z,34.25
2019-05-17T09:37:22.691Z,33.69
2019-05-17T09:39:55.866Z,34.13
2019-05-17T09:42:30.006Z,34.11
2019-05-17T09:45:06.259Z,35.66
2019-05-17T09:47:41.260Z,35.67
2019-05-17T09:50:16.951Z,34.60
2019-05-17T09:52:51.665Z,33.31
2019-05-17T09:55:26.282Z,30.92
2019-05-17T09:58:01.269Z,31.84
2019-05-17T10:00:36.286Z,29.46
2019-05-17T10:03:11.072Z,30.97
2019-05-17T10:05:45.691Z,33.01
2019-05-17T10:08:19.066Z,33.01
2019-05-17T10:11:04.953Z,33.43
2019-05-17T10:13:29.949Z,33.90
2019-05-17T10:16:04.297Z,35.50
2019-05-17T10:18:40.126Z,34.38
2019-05-17T10:21:15.276Z,34.41
2019-05-17T10:23:50.261Z,34.90
2019-05-17T10:26:25.261Z,35.99
2019-05-17T10:29:00.123Z,35.99
2019-05-17T10:31:34.778Z,36.92
2019-05-17T10:34:09.691Z,36.92
2019-05-17T10:36:44.327Z,38.14
2019-05-17T10:39:19.402Z,38.41
2019-05-17T10:41:54.290Z,38.72
2019-05-17T10:44:43.099Z,38.92
2019-05-17T10:47:10.098Z,39.63
2019-05-17T10:49:45.271Z,40.26
2019-05-17T10:52:20.364Z,40.46
2019-05-17T10:54:55.283Z,40.84
2019-05-17T10:57:30.370Z,40.84
2019-05-17T11:00:05.297Z,40.15
2019-05-17T11:02:39.036Z,39.53
2019-05-17T11:05:13.767Z,39.46
2019-05-17T11:07:50.475Z,39.46
2019-05-17T11:10:24.711Z,39.65
2019-05-17T11:12:59.296Z,39.65
2019-05-17T11:15:33.947Z,40.90
2019-05-17T11:18:08.410Z,40.90
2019-05-17T11:20:43.270Z,41.24
2019-05-17T11:23:18.340Z,41.23
2019-05-17T11:25:52.946Z,40.51
2019-05-17T11:28:27.694Z,40.31
2019-05-17T11:31:02.249Z,40.31
2019-05-17T11:33:36.941Z,39.79
2019-05-17T11:36:11.311Z,39.24
2019-05-17T11:38:45.896Z,39.24
2019-05-17T11:41:21.768Z,37.56
2019-05-17T11:43:56.699Z,37.35
2019-05-17T11:46:36.250Z,37.35
2019-05-17T11:49:06.377Z,36.43
2019-05-17T11:51:41.150Z,34.82
2019-05-17T11:54:15.741Z,34.63
2019-05-17T11:56:49.959Z,34.63
2019-05-17T11:59:24.708Z,34.70
2019-05-17T12:01:58.083Z,34.70
2019-05-17T12:04:32.648Z,34.11
2019-05-17T12:07:07.612Z,33.52
2019-05-17T12:09:42.282Z,34.70
2019-05-17T12:12:16.893Z,35.26
2019-05-17T12:14:51.302Z,36.14
2019-05-17T12:17:26.129Z,36.70
2019-05-17T12:20:00.880Z,36.73
2019-05-17T12:22:34.276Z,36.95
2019-05-17T12:25:09.152Z,36.95
2019-05-17T12:27:44.208Z,36.85
2019-05-17T12:30:19.289Z,37.48
2019-05-17T12:32:54.136Z,37.92
2019-05-17T12:35:28.865Z,37.82
2019-05-17T12:38:02.189Z,37.82
2019-05-17T12:40:36.703Z,34.24
2019-05-17T12:43:10.043Z,34.24
2019-05-17T12:45:43.069Z,34.79
2019-05-17T12:48:17.447Z,35.36
2019-05-17T12:50:52.287Z,35.38
2019-05-17T12:53:26.961Z,35.88
2019-05-17T12:56:01.668Z,35.08
2019-05-17T12:58:35.065Z,35.94
2019-05-17T13:01:09.730Z,36.70
2019-05-17T13:03:43.052Z,36.70
2019-05-17T13:06:17.630Z,36.93
2019-05-17T13:08:52.274Z,37.06
2019-05-17T13:11:26.883Z,37.15
2019-05-17T13:14:01.683Z,37.60
2019-05-17T13:16:36.279Z,38.17
2019-05-17T13:19:11.251Z,38.29
2019-05-17T13:21:45.927Z,38.06
2019-05-17T13:24:20.679Z,37.78
2019-05-17T13:26:55.277Z,37.81
2019-05-17T13:29:29.945Z,36.80
2019-05-17T13:32:04.642Z,36.80
2019-05-17T13:34:39.332Z,37.22
2019-05-17T13:37:15.271Z,33.69
2019-05-17T13:39:50.272Z,33.19
2019-05-17T13:42:24.950Z,34.68
2019-05-17T13:44:59.906Z,35.58
2019-05-17T13:47:34.287Z,35.58
2019-05-17T13:50:09.726Z,34.90
2019-05-17T13:52:43.949Z,34.90
2019-05-17T13:55:18.312Z,31.46
2019-05-17T13:57:52.779Z,27.40
2019-05-17T14:00:27.279Z,26.15
2019-05-17T14:03:01.778Z,27.98
2019-05-17T14:05:36.287Z,28.95
2019-05-17T14:08:10.873Z,29.81
2019-05-17T14:10:45.284Z,30.67
2019-05-17T14:13:19.788Z,31.32
2019-05-17T14:15:53.851Z,30.91
2019-05-17T14:18:26.673Z,31.05
2019-05-17T14:21:00.948Z,31.72
2019-05-17T14:23:35.286Z,32.38
2019-05-17T14:26:09.706Z,31.90
2019-05-17T14:28:42.807Z,30.60
2019-05-17T14:31:17.128Z,30.41
2019-05-17T14:33:51.734Z,30.10
2019-05-17T14:36:24.664Z,28.81
2019-05-17T14:38:58.960Z,29.82
2019-05-17T14:41:33.404Z,31.07
2019-05-17T14:44:07.950Z,31.07
2019-05-17T14:46:42.274Z,32.68
2019-05-17T14:49:16.778Z,33.52
2019-05-17T14:51:50.820Z,30.39
2019-05-17T14:54:25.249Z,28.15
2019-05-17T14:56:59.706Z,28.46
2019-05-17T14:59:34.101Z,29.32
2019-05-17T15:02:08.693Z,31.51
2019-05-17T15:04:43.151Z,31.51
2019-05-17T15:07:17.890Z,32.66
2019-05-17T15:09:52.304Z,32.94
2019-05-17T15:12:28.727Z,32.59
2019-05-17T15:15:02.902Z,30.80
2019-05-17T15:17:37.534Z,30.80
2019-05-17T15:20:12.260Z,30.80
2019-05-17T15:22:46.712Z,30.80
2019-05-17T15:25:21.283Z,32.18
2019-05-17T15:27:55.749Z,32.97
2019-05-17T15:30:29.547Z,33.26
2019-05-17T15:33:04.218Z,34.17
2019-05-17T15:35:39.733Z,34.40
2019-05-17T15:38:14.283Z,34.67
2019-05-17T15:40:48.759Z,34.52
2019-05-17T15:43:23.280Z,35.31
2019-05-17T15:45:57.736Z,35.56
2019-05-17T15:48:32.284Z,35.96
2019-05-17T15:51:06.940Z,36.70
2019-05-17T15:53:41.282Z,37.42
2019-05-17T15:56:15.761Z,37.92
2019-05-17T15:58:48.907Z,37.92
2019-05-17T16:01:23.313Z,38.35
2019-05-17T16:03:57.951Z,38.42
2019-05-17T16:06:32.643Z,38.54
2019-05-17T16:09:08.322Z,38.54
2019-05-17T16:11:42.817Z,39.06
2019-05-17T16:14:17.243Z,39.07
2019-05-17T16:16:52.731Z,38.42
2019-05-17T16:19:25.852Z,37.89
2019-05-17T16:21:58.872Z,37.89
2019-05-17T16:24:32.956Z,38.36
2019-05-17T16:27:07.359Z,39.02
2019-05-17T16:29:42.290Z,38.97
2019-05-17T16:32:16.950Z,39.64
2019-05-17T16:34:51.417Z,39.64
2019-05-17T16:37:26.246Z,40.02
2019-05-17T16:40:00.958Z,40.05
2019-05-17T16:42:37.355Z,39.48
2019-05-17T16:45:13.949Z,39.48
2019-05-17T16:47:49.286Z,39.16
2019-05-17T16:50:24.136Z,39.14
2019-05-17T16:53:05.869Z,39.24
2019-05-17T16:55:35.708Z,39.53
2019-05-17T16:58:10.289Z,40.32
2019-05-17T17:00:46.292Z,40.67
2019-05-17T17:03:21.136Z,40.93
2019-05-17T17:05:56.749Z,41.47
2019-05-17T17:08:31.288Z,41.76
2019-05-17T17:11:05.957Z,42.13
2019-05-17T17:13:40.332Z,42.44
2019-05-17T17:16:14.944Z,42.44
2019-05-17T17:18:49.355Z,42.58
2019-05-17T17:21:24.003Z,43.07
2019-05-17T17:23:58.779Z,43.37
2019-05-17T17:26:32.110Z,43.81
2019-05-17T17:29:06.595Z,43.81
2019-05-17T17:31:41.286Z,44.46
2019-05-17T17:34:15.945Z,44.58
2019-05-17T17:36:50.292Z,44.76
2019-05-17T17:41:44.935Z,44.98
2019-05-17T17:44:19.652Z,45.56
2019-05-17T17:46:54.256Z,45.56
2019-05-17T17:49:29.150Z,46.03
2019-05-17T17:52:03.734Z,46.29
2019-05-17T17:54:36.900Z,46.46
2019-05-17T17:57:09.874Z,46.46
2019-05-17T17:59:44.285Z,46.63
2019-05-17T18:02:18.905Z,46.77
2019-05-17T18:04:53.407Z,47.07
2019-05-17T18:07:27.960Z,47.07
2019-05-17T18:10:02.354Z,47.02
2019-05-17T18:12:36.961Z,47.27
2019-05-17T18:15:11.602Z,47.52
2019-05-17T18:17:45.961Z,47.75
2019-05-17T18:20:20.305Z,47.89
2019-05-17T18:22:54.907Z,48.01
2019-05-17T18:25:27.864Z,48.10
2019-05-17T18:28:02.282Z,48.17
2019-05-17T18:30:36.908Z,48.35
2019-05-17T18:33:12.700Z,48.61
2019-05-17T18:35:47.295Z,48.65
2019-05-17T18:38:24.785Z,48.52
2019-05-17T18:40:58.062Z,48.77
2019-05-17T18:43:32.475Z,48.89
2019-05-17T18:46:07.267Z,48.88
2019-05-17T18:48:41.735Z,48.84
2019-05-17T18:53:46.738Z,49.09
2019-05-17T18:56:19.808Z,49.18
2019-05-17T18:58:54.283Z,49.22
2019-05-17T19:01:28.955Z,49.25
2019-05-17T19:04:03.675Z,49.58
2019-05-17T19:06:38.188Z,49.58
2019-05-17T19:09:12.780Z,50.39
2019-05-17T19:11:47.291Z,51.02
2019-05-17T19:14:21.741Z,51.27
2019-05-17T19:16:56.149Z,51.53
2019-05-17T19:19:30.690Z,51.53
2019-05-17T19:22:05.273Z,51.53
2019-05-17T19:24:39.775Z,51.37
2019-05-17T19:27:12.834Z,51.99
2019-05-17T19:29:47.266Z,51.99
2019-05-17T19:32:21.742Z,52.59
2019-05-17T19:34:56.282Z,52.60
2019-05-17T19:37:30.968Z,52.98
2019-05-17T19:40:06.659Z,53.22
2019-05-17T19:42:40.956Z,53.80
2019-05-17T19:45:16.764Z,53.68
2019-05-17T19:47:51.298Z,53.68
2019-05-17T19:50:25.797Z,54.25
2019-05-17T19:52:58.876Z,54.81
2019-05-17T19:55:33.320Z,54.63
2019-05-17T19:58:08.294Z,54.60
2019-05-17T20:00:42.886Z,55.03
2019-05-17T20:03:17.279Z,55.60
2019-05-17T20:05:51.762Z,55.11
2019-05-17T20:08:24.871Z,54.93
2019-05-17T20:10:57.992Z,54.85
2019-05-17T20:14:14.886Z,54.71
2019-05-17T20:16:49.279Z,55.12
2019-05-17T20:19:23.717Z,54.89
2019-05-17T20:21:58.294Z,55.25
2019-05-17T20:24:32.811Z,55.65
2019-05-17T20:27:07.339Z,55.65
2019-05-17T20:29:41.945Z,55.85
2019-05-17T20:32:16.345Z,55.93
2019-05-17T20:34:51.017Z,56.12
2019-05-17T20:37:25.683Z,56.20
2019-05-17T20:40:00.157Z,56.20
2019-05-17T20:42:34.693Z,56.14
2019-05-17T20:45:10.788Z,55.58
2019-05-17T20:47:43.872Z,55.60
2019-05-17T20:50:18.337Z,55.61
2019-05-17T20:52:53.135Z,56.07
2019-05-17T20:55:27.798Z,56.11
2019-05-17T20:58:00.987Z,56.16
2019-05-17T21:00:33.722Z,56.52
2019-05-17T21:03:07.957Z,56.78
2019-05-17T21:05:42.287Z,56.80
2019-05-17T21:08:16.747Z,57.25
2019-05-17T21:10:50.108Z,57.35
2019-05-17T21:13:24.748Z,57.19
2019-05-17T21:15:59.249Z,57.19
2019-05-17T21:18:33.954Z,57.21
2019-05-17T21:21:08.698Z,56.97
2019-05-17T21:23:43.252Z,56.53
2019-05-17T21:26:17.722Z,56.18
2019-05-17T21:28:52.281Z,56.40
2019-05-17T21:31:26.736Z,56.37
2019-05-17T21:34:01.415Z,56.29
2019-05-17T21:37:34.893Z,56.09
2019-05-17T21:40:10.319Z,56.14
2019-05-17T21:42:45.125Z,56.21
2019-05-17T21:45:19.775Z,56.32
2019-05-17T21:47:54.292Z,56.32
2019-05-17T21:50:29.069Z,56.45
2019-05-17T21:53:03.669Z,56.66
2019-05-17T21:55:38.299Z,56.66
2019-05-17T21:58:12.761Z,56.91
2019-05-17T22:01:19.800Z,56.97
2019-05-17T22:03:54.286Z,57.46
2019-05-17T22:06:28.748Z,57.38
2019-05-17T22:09:02.124Z,57.37
2019-05-17T22:11:40.321Z,57.37
2019-05-17T22:14:14.949Z,57.66
2019-05-17T22:16:49.576Z,57.49
2019-05-17T22:19:24.114Z,57.99
2019-05-17T22:21:58.797Z,58.68
2019-05-17T22:24:33.104Z,58.68
2019-05-17T22:27:07.720Z,58.54
2019-05-17T22:29:42.138Z,58.87
2019-05-17T22:32:16.727Z,58.81
2019-05-17T22:34:51.087Z,58.94
2019-05-17T22:37:25.636Z,59.13
2019-05-17T22:40:00.289Z,59.13
2019-05-17T22:42:34.709Z,59.10
2019-05-17T22:45:09.365Z,59.08
2019-05-17T22:47:43.909Z,59.20
2019-05-17T22:50:18.289Z,59.48
2019-05-17T22:52:52.739Z,59.68
2019-05-17T22:55:25.715Z,59.70
2019-05-17T22:58:00.289Z,59.79
2019-05-17T23:00:35.905Z,59.89
2019-05-17T23:03:10.278Z,60.09
2019-05-17T23:05:44.887Z,60.25
2019-05-17T23:08:18.040Z,60.25
2019-05-17T23:10:52.648Z,60.15
2019-05-17T23:13:26.946Z,60.32
2019-05-17T23:16:03.129Z,60.47
2019-05-17T23:18:37.705Z,60.36
2019-05-17T23:21:11.295Z,60.57
2019-05-17T23:23:45.634Z,60.98
2019-05-17T23:26:18.813Z,60.98
2019-05-17T23:28:52.951Z,61.17
2019-05-17T23:31:26.076Z,61.48
2019-05-17T23:34:00.326Z,61.64
2019-05-17T23:36:34.750Z,61.53
2019-05-17T23:39:09.955Z,61.49
2019-05-17T23:41:44.314Z,61.66
2019-05-17T23:44:18.738Z,61.66
2019-05-17T23:47:06.250Z,62.04
2019-05-17T23:49:29.284Z,62.03
2019-05-17T23:52:03.819Z,61.76
2019-05-17T23:54:38.285Z,61.65
2019-05-17T23:57:12.741Z,61.65
2019-05-17T23:59:47.132Z,61.82
